KSMF METAR and TAF | Updated Today

KSMF METAR

Sacramento International Airport

Observation time: 27 min. ago

KSMF 261353Z 17006KT 10SM CLR 18/10 A2993 RMK AO2 SLP136 T01780100

Need help? Read our tutorial on how to read METARs or read the parsed version below.

Sacramento International Airport (KSMF) METAR

  • Weather conditions on Sun, 26 Jun 2022 13:53:00 +0000 (27 min. ago):
  • Present conditions: Dry
  • Clouds: Clear skies
  • Visibility: 16093 meters
  • Wind: 170 degrees at 6 knots
  • Temperature: 18 celsius
  • Dew point: 10 celsius
  • Pressure: 29.93 inHg
  • Remarks: AO2 SLP136 T01780100


Useful to know...

KSMF TAF

Sacramento International Airport

KSMF 261120Z 2612/2712 17009KT P6SM SKC FM262100 20008KT P6SM SKC FM270400 16010KT P6SM SKC
Observation time: 3:00 hr. ago
Need help? Read our tutorial on how to read TAFs or read the parsed version below.

Parsed version of TAF for Sacramento International Airport (KSMF)

  • From 26 June at 12:00 UTC, to day 27 of the month at 12:00 UTC
  • Clouds: No significant changes expected
  • Wind: 170 degrees at 9
  • From day 26 of the month at 21:00 UTC
  • Clouds: No significant changes expected
  • Wind: 200 degrees at 8
  • From day 27 of the month at 04:00 UTC
  • Clouds: No significant changes expected
  • Wind: 160 degrees at 10